ADDS METAR Data INFO
IDs: Format: Raw Decoded Include TAF

Data at: 0215 UTC 14 Dec 2017

KYIP 140153Z 05009KT 1SM R05R/5500VP6000FT -SN BR VV016 M04/M06 A2940 RMK AO2 SLP962 P0000 T10391056
KYIP 140121Z 07009KT 1 1/4SM -SN BR OVC017 M04/M06 A2939 RMK AO2 P0000 T10391056
KYIP 140113Z 08010KT 1SM R05R/P6000FT -SN BR VV014 M04/M06 A2939 RMK AO2 P0000 T10391056
KYIP 140102Z 08008KT 3/4SM R05R/5500VP6000FT -SN BR VV012 M04/M06 A2939 RMK AO2 P0000 T10391056
KYIP 140053Z 09007KT 1SM R05R/5500VP6000FT -SN BR VV012 M04/M06 A2940 RMK AO2 SLP962 P0000 T10391056
KYIP 140043Z 10008KT 1SM R05R/P6000FT -SN BR VV014 M04/M06 A2940 RMK AO2 P0000 T10391056
KYIP 140032Z 10009KT 1 1/4SM -SN BR OVC015 M04/M06 A2940 RMK AO2 P0000 T10391056
KYIP 140025Z 11008KT 1SM R05R/P6000FT -SN BR VV014 M04/M06 A2940 RMK AO2 P0000 T10391056
KYIP 140014Z 11009KT 3/4SM R05R/6000VP6000FT -SN BR VV011 M04/M06 A2941 RMK AO2 P0000 T10391056
KYIP 132353Z 12010KT 1/2SM R05R/4500V5000FT SN FZFG VV007 M04/M06 A2942 RMK AO2 SLP969 P0000 60000 T10441061 11044 21061 58014
KYIP 132312Z 12009KT 3/4SM R05R/4000VP6000FT -SN BR VV008 M04/M06 A2944 RMK AO2 P0000 T10441061
KYIP 132304Z 12009KT 3/4SM R05R/6000VP6000FT -SN BR VV010 M04/M06 A2944 RMK AO2 P0000 T10441061
KYIP 132253Z 12011KT 3/4SM R05R/4500VP6000FT -SN BR VV009 M04/M06 A2945 RMK AO2 SLP979 P0000 T10441061
KYIP 132209Z 14010KT 1/2SM R05R/3500V6000FT SN FZFG VV009 M04/M06 A2947 RMK AO2 P0000 T10441061
KYIP 132200Z 12010KT 1/4SM R05R/3500V4000FT +SN FZFG VV012 M04/M06 A2946 RMK AO2 P0000 T10441061
KYIP 132153Z 12009KT 1/2SM R05R/3500V6000FT SN FZFG VV013 M04/M06 A2947 RMK AO2 SLP987 P0000 T10441061
KYIP 132139Z 13008KT 3/4SM R05R/5500VP6000FT -SN BR VV018 M04/M07 A2947 RMK AO2 P0000 T10441067
KYIP 132053Z 14011KT 1/2SM R05R/3500V4500FT SN FZFG VV014 M05/M07 A2946 RMK AO2 SNB26 SLP983 P0000 60000 T10501072 56034
KYIP 132047Z 13012KT 3/4SM R05R/4000VP6000FT -SN BR VV015 M05/M07 A2946 RMK AO2 SNB26 P0000
KYIP 132042Z 13015KT 1 3/4SM R05R/5000VP6000FT -SN BKN014 OVC023 M05/M08 A2945 RMK AO2 SNB26 P0000 T10501078
KYIP 131953Z 12013KT 10SM BKN012 OVC040 M06/M08 A2950 RMK AO2 SNE21 PRESFR SLP999 P0000 T10561083
KYIP 131951Z 13010KT 10SM BKN012 OVC040 M06/M08 A2951 RMK AO2 SNE21 P0000
KYIP 131916Z 13012KT 4SM -SN FEW014 BKN046 OVC070 M06/M08 A2955 RMK AO2 P0000 T10561083
KYIP 131907Z 13012KT 2SM -SN FEW014 BKN047 OVC070 M06/M08 A2955 RMK AO2 P0000 T10561083
KYIP 131853Z 14012KT 1 1/4SM -SN FEW013 BKN022 OVC055 M06/M09 A2956 RMK AO2 SLP019 P0000 T10611089
KYIP 131830Z 14012G19KT 1 3/4SM R05R/4500VP6000FT -SN FEW017 BKN023 OVC043 M06/M09 A2958 RMK AO2 P0000 T10611089
KYIP 131826Z 14014G19KT 2 1/2SM -SN FEW017 SCT029 OVC043 M06/M09 A2958 RMK AO2 PRESFR P0000 T10611089
KYIP 131812Z 12009KT 4SM -SN OVC043 M06/M09 A2961 RMK AO2 P0000 T10611089
KYIP 131800Z 14012KT 2SM -SN FEW010 SCT015 OVC043 M06/M09 A2961 RMK AO2 PRESFR P0000 T10611089
KYIP 131753Z 16009KT 1 1/4SM R05R/4500VP6000FT -SN BKN015 OVC047 M06/M09 A2963 RMK AO2 SLP041 P0000 60000 T10611089 11061 21072 58046
KYIP 131724Z 18009KT 1/2SM R05R/2600V5000FT SN FZFG FEW008 OVC013 M06/M08 A2967 RMK AO2 P0000 T10611083
KYIP 131715Z 19010KT 3/4SM R05R/3000VP6000FT -SN FEW010 OVC013 M06/M09 A2969 RMK AO2 P0000 T10611089
KYIP 131653Z 17009KT 3/4SM R05R/3000VP6000FT -SN SCT009 OVC015 M06/M09 A2969 RMK AO2 SLP064 P0000 T10611089
KYIP 131624Z 20010KT 3/4SM R05R/4000VP6000FT -SN BR VV015 M07/M09 A2972 RMK AO2 P0000 T10671089
KYIP 131604Z 20010KT 1/2SM R05R/3500V5000FT -SN FZFG VV014 M07/M09 A2974 RMK AO2 P0000 T10671089
KYIP 131553Z 20009KT 3/4SM R05R/4500V5500FT -SN BR VV015 M07/M09 A2975 RMK AO2 SLP081 P0000 T10671089
KYIP 131546Z 21009KT 3/4SM R05R/4500VP6000FT -SN BR VV015 M07/M09 A2976 RMK AO2 P0000 T10671089
KYIP 131526Z 20009KT 1/2SM R05R/4000V5500FT -SN FZFG VV014 M07/M09 A2976 RMK AO2 P0000 T10671089
KYIP 131512Z 18008KT 3/4SM R05R/4500VP6000FT -SN BR VV017 M07/M09 A2976 RMK AO2 P0000 T10671089
KYIP 131453Z 18009KT 1 1/4SM -SN BR BKN026 OVC035 M07/M09 A2977 RMK AO2 SLP089 P0000 60000 T10671089 58020
KYIP 131353Z 19007KT 1 1/2SM -SN OVC028 M07/M09 A2979 RMK AO2 SNB14 SLP097 P0000 T10671094
KYIP 131342Z 20008KT 1 3/4SM -SN OVC032 M07/M10 A2980 RMK AO2 TWR VIS 2 SNB14 P0000 T10671100
KYIP 131253Z 20008KT 10SM SCT028 OVC060 M07/M11 A2981 RMK AO2 SLP104 T10721106
KYIP 131236Z 22008KT 10SM BKN027 OVC034 M07/M11 A2982 RMK AO2 T10721106
KYIP 131153Z 22008KT 10SM OVC034 M07/M11 A2982 RMK AO2 SLP109 T10721111 11072 21100 58011
KYIP 131053Z 22007KT 10SM OVC043 M08/M12 A2984 RMK AO2 SLP116 T10781122
KYIP 130953Z 23007KT 10SM OVC045 M09/M14 A2984 RMK AO2 SLP117 T10941139
KYIP 130853Z 28006KT 10SM OVC042 M08/M13 A2986 RMK AO2 SLP119 T10781133 55002
KYIP 130753Z 28010KT 10SM OVC041 M08/M13 A2986 RMK AO2 SLP119 T10831133
KYIP 130653Z 30008KT 10SM CLR M10/M14 A2986 RMK AO2 SLP121 T11001144
KYIP 130553Z 29011KT 10SM FEW044 M09/M14 A2986 RMK AO2 SLP122 60000 T10891139 11072 21100 58010
KYIP 130453Z 29012KT 10SM BKN048 M08/M14 A2988 RMK AO2 SLP127 T10831139 400061100
KYIP 130353Z 29012KT 10SM OVC050 M07/M13 A2989 RMK AO2 SLP129 T10721128
KYIP 130253Z 29009KT 10SM OVC050 M08/M12 A2989 RMK AO2 SLP131 60000 T10781122 58002
KYIP 130153Z 29007KT 10SM OVC055 M08/M12 A2990 RMK AO2 SNB26E44 SLP134 P0000 T10831122
KYIP 130053Z 30008KT 10SM BKN060 M09/M14 A2991 RMK AO2 SLP137 T10891139
KYIP 122353Z 30012KT 10SM FEW046 OVC055 M08/M13 A2990 RMK AO2 SLP133 60000 T10781133 11056 21094 51013
KYIP 122253Z 31007KT 10SM FEW043 M09/M16 A2989 RMK AO2 SLP130 T10891156
KYIP 122153Z 30014KT 10SM BKN049 M07/M15 A2987 RMK AO2 PK WND 31029/2122 SLP123 T10721150
KYIP 122053Z 31016G28KT 6SM HZ OVC055 M06/M14 A2986 RMK AO2 PK WND 31031/2041 UPB47E48 SLP118 P0000 60000 T10611139 52004
KYIP 121953Z 33015KT 10SM SCT048 OVC060 M07/M16 A2986 RMK AO2 SLP117 T10671156
KYIP 121853Z 32014G24KT 9SM BKN046 OVC055 M06/M14 A2985 RMK AO2 PK WND 31031/1842 UPB43E50 SLP114 P0000 T10561139 $
KYIP 121753Z 31020KT 9SM FEW044 OVC055 M06/M14 A2985 RMK AO2 PK WND 32028/1707 SLP113 60000 T10611144 11050 21067 58004 $
KYIP 121653Z 32014G22KT 10SM BKN042 OVC050 M06/M14 A2986 RMK AO2 SLP117 T10611139 $
KYIP 121553Z 32014G24KT 10SM BKN039 BKN047 M06/M13 A2987 RMK AO2 PK WND 31028/1517 SLP121 T10611128 $
KYIP 121453Z 31020G32KT 7SM SCT036 M06/M13 A2986 RMK AO2 PK WND 31032/1445 SLP118 60000 T10611128 $